sensor_id;sensor_type;location;lat;lon;timestamp;P1;durP1;ratioP1;P2;durP2;ratioP2
34359;SDS011;20624;55.870;26.506;2022-08-19T00:01:52;4.10;;;2.60;;
34359;SDS011;20624;55.870;26.506;2022-08-19T00:04:22;6.10;;;2.75;;
34359;SDS011;20624;55.870;26.506;2022-08-19T00:06:52;7.57;;;2.97;;
34359;SDS011;20624;55.870;26.506;2022-08-19T00:09:20;4.70;;;3.20;;
34359;SDS011;20624;55.870;26.506;2022-08-19T00:11:49;6.22;;;2.78;;
34359;SDS011;20624;55.870;26.506;2022-08-19T00:14:18;6.82;;;2.85;;
34359;SDS011;20624;55.870;26.506;2022-08-19T00:16:47;4.82;;;2.45;;
34359;SDS011;20624;55.870;26.506;2022-08-19T00:19:15;4.65;;;2.90;;
34359;SDS011;20624;55.870;26.506;2022-08-19T00:21:42;7.18;;;3.05;;
34359;SDS011;20624;55.870;26.506;2022-08-19T00:24:12;4.50;;;2.80;;
34359;SDS011;20624;55.870;26.506;2022-08-19T00:26:41;8.15;;;3.03;;
34359;SDS011;20624;55.870;26.506;2022-08-19T00:29:11;6.32;;;2.78;;
34359;SDS011;20624;55.870;26.506;2022-08-19T00:34:08;8.25;;;3.33;;
34359;SDS011;20624;55.870;26.506;2022-08-19T00:36:36;6.63;;;3.00;;
34359;SDS011;20624;55.870;26.506;2022-08-19T00:39:04;3.50;;;2.28;;
34359;SDS011;20624;55.870;26.506;2022-08-19T00:41:32;7.00;;;2.83;;
34359;SDS011;20624;55.870;26.506;2022-08-19T00:44:14;3.78;;;2.28;;
34359;SDS011;20624;55.870;26.506;2022-08-19T00:46:42;5.20;;;2.70;;
34359;SDS011;20624;55.870;26.506;2022-08-19T00:49:36;5.03;;;2.80;;
34359;SDS011;20624;55.870;26.506;2022-08-19T00:52:09;8.52;;;2.88;;
34359;SDS011;20624;55.870;26.506;2022-08-19T00:55:00;5.28;;;2.75;;
34359;SDS011;20624;55.870;26.506;2022-08-19T00:57:39;8.13;;;2.58;;
34359;SDS011;20624;55.870;26.506;2022-08-19T01:00:15;5.65;;;2.80;;
34359;SDS011;20624;55.870;26.506;2022-08-19T01:02:45;4.63;;;2.53;;
34359;SDS011;20624;55.870;26.506;2022-08-19T01:05:15;3.72;;;2.50;;
34359;SDS011;20624;55.870;26.506;2022-08-19T01:07:47;5.05;;;2.53;;
34359;SDS011;20624;55.870;26.506;2022-08-19T01:10:16;4.38;;;2.67;;
34359;SDS011;20624;55.870;26.506;2022-08-19T01:12:48;7.57;;;2.05;;
34359;SDS011;20624;55.870;26.506;2022-08-19T01:15:19;5.32;;;2.78;;
34359;SDS011;20624;55.870;26.506;2022-08-19T01:17:51;5.32;;;3.38;;
34359;SDS011;20624;55.870;26.506;2022-08-19T01:20:20;11.07;;;2.92;;
34359;SDS011;20624;55.870;26.506;2022-08-19T01:22:50;7.38;;;2.30;;
34359;SDS011;20624;55.870;26.506;2022-08-19T01:25:22;3.58;;;2.55;;
34359;SDS011;20624;55.870;26.506;2022-08-19T01:27:54;5.13;;;2.58;;
34359;SDS011;20624;55.870;26.506;2022-08-19T01:30:36;5.80;;;2.50;;
34359;SDS011;20624;55.870;26.506;2022-08-19T01:33:09;6.65;;;2.45;;
34359;SDS011;20624;55.870;26.506;2022-08-19T01:35:40;3.50;;;2.17;;
34359;SDS011;20624;55.870;26.506;2022-08-19T01:38:18;5.45;;;2.47;;
34359;SDS011;20624;55.870;26.506;2022-08-19T01:40:49;6.75;;;3.00;;
34359;SDS011;20624;55.870;26.506;2022-08-19T01:43:17;4.72;;;2.63;;
34359;SDS011;20624;55.870;26.506;2022-08-19T01:45:45;6.30;;;2.42;;
34359;SDS011;20624;55.870;26.506;2022-08-19T01:48:13;6.32;;;3.28;;
34359;SDS011;20624;55.870;26.506;2022-08-19T01:50:41;4.57;;;3.00;;
34359;SDS011;20624;55.870;26.506;2022-08-19T01:53:10;4.82;;;2.83;;
34359;SDS011;20624;55.870;26.506;2022-08-19T01:55:39;6.82;;;3.15;;
34359;SDS011;20624;55.870;26.506;2022-08-19T01:58:11;6.53;;;2.70;;
34359;SDS011;20624;55.870;26.506;2022-08-19T02:00:41;3.67;;;2.40;;
34359;SDS011;20624;55.870;26.506;2022-08-19T02:03:10;9.27;;;2.58;;
34359;SDS011;20624;55.870;26.506;2022-08-19T02:05:41;7.75;;;2.80;;
34359;SDS011;20624;55.870;26.506;2022-08-19T02:08:10;5.50;;;3.05;;
34359;SDS011;20624;55.870;26.506;2022-08-19T02:10:41;3.88;;;2.38;;
34359;SDS011;20624;55.870;26.506;2022-08-19T02:13:11;3.15;;;1.98;;
34359;SDS011;20624;55.870;26.506;2022-08-19T02:15:39;6.72;;;2.60;;
34359;SDS011;20624;55.870;26.506;2022-08-19T02:18:09;4.03;;;2.30;;
34359;SDS011;20624;55.870;26.506;2022-08-19T02:20:40;7.85;;;3.00;;
34359;SDS011;20624;55.870;26.506;2022-08-19T02:23:09;8.48;;;3.33;;
34359;SDS011;20624;55.870;26.506;2022-08-19T02:25:41;5.13;;;2.72;;
34359;SDS011;20624;55.870;26.506;2022-08-19T02:28:10;6.53;;;3.28;;
34359;SDS011;20624;55.870;26.506;2022-08-19T02:30:44;4.80;;;3.03;;
34359;SDS011;20624;55.870;26.506;2022-08-19T02:33:12;5.45;;;3.55;;
34359;SDS011;20624;55.870;26.506;2022-08-19T02:35:46;6.60;;;2.60;;
34359;SDS011;20624;55.870;26.506;2022-08-19T02:38:15;3.47;;;2.13;;
34359;SDS011;20624;55.870;26.506;2022-08-19T02:40:59;5.93;;;3.47;;
34359;SDS011;20624;55.870;26.506;2022-08-19T02:43:27;7.28;;;2.83;;
34359;SDS011;20624;55.870;26.506;2022-08-19T02:46:00;8.20;;;2.92;;
34359;SDS011;20624;55.870;26.506;2022-08-19T02:48:27;5.18;;;3.00;;
34359;SDS011;20624;55.870;26.506;2022-08-19T02:50:55;9.05;;;3.40;;
34359;SDS011;20624;55.870;26.506;2022-08-19T02:53:24;5.13;;;2.72;;
34359;SDS011;20624;55.870;26.506;2022-08-19T02:55:53;5.68;;;2.67;;
34359;SDS011;20624;55.870;26.506;2022-08-19T02:58:21;4.13;;;2.40;;
34359;SDS011;20624;55.870;26.506;2022-08-19T03:00:54;5.13;;;2.90;;
34359;SDS011;20624;55.870;26.506;2022-08-19T03:03:22;6.88;;;2.72;;
34359;SDS011;20624;55.870;26.506;2022-08-19T03:05:50;5.20;;;2.67;;
34359;SDS011;20624;55.870;26.506;2022-08-19T03:08:22;6.93;;;2.63;;
34359;SDS011;20624;55.870;26.506;2022-08-19T03:10:51;6.28;;;2.28;;
34359;SDS011;20624;55.870;26.506;2022-08-19T03:13:19;8.27;;;2.90;;
34359;SDS011;20624;55.870;26.506;2022-08-19T03:15:47;4.53;;;2.97;;
34359;SDS011;20624;55.870;26.506;2022-08-19T03:18:15;3.15;;;2.10;;
34359;SDS011;20624;55.870;26.506;2022-08-19T03:20:45;4.20;;;2.40;;
34359;SDS011;20624;55.870;26.506;2022-08-19T03:23:13;7.90;;;2.85;;
34359;SDS011;20624;55.870;26.506;2022-08-19T03:25:44;6.30;;;2.55;;
34359;SDS011;20624;55.870;26.506;2022-08-19T03:28:27;4.40;;;2.45;;
34359;SDS011;20624;55.870;26.506;2022-08-19T03:30:56;3.75;;;2.47;;
34359;SDS011;20624;55.870;26.506;2022-08-19T03:33:29;5.10;;;2.95;;
34359;SDS011;20624;55.870;26.506;2022-08-19T03:36:03;4.20;;;2.45;;
34359;SDS011;20624;55.870;26.506;2022-08-19T03:38:36;7.78;;;2.33;;
34359;SDS011;20624;55.870;26.506;2022-08-19T03:41:07;5.20;;;2.55;;
34359;SDS011;20624;55.870;26.506;2022-08-19T03:43:37;10.82;;;2.80;;
34359;SDS011;20624;55.870;26.506;2022-08-19T03:46:08;6.88;;;2.47;;
34359;SDS011;20624;55.870;26.506;2022-08-19T03:48:39;6.45;;;2.67;;
34359;SDS011;20624;55.870;26.506;2022-08-19T03:51:07;3.30;;;2.60;;
34359;SDS011;20624;55.870;26.506;2022-08-19T03:53:41;6.65;;;2.72;;
34359;SDS011;20624;55.870;26.506;2022-08-19T03:56:09;5.05;;;2.58;;
34359;SDS011;20624;55.870;26.506;2022-08-19T03:58:37;5.68;;;3.00;;
34359;SDS011;20624;55.870;26.506;2022-08-19T04:01:08;4.78;;;3.00;;
34359;SDS011;20624;55.870;26.506;2022-08-19T04:03:38;6.28;;;2.60;;
34359;SDS011;20624;55.870;26.506;2022-08-19T04:06:18;4.18;;;2.58;;
34359;SDS011;20624;55.870;26.506;2022-08-19T04:08:48;4.65;;;2.25;;
34359;SDS011;20624;55.870;26.506;2022-08-19T04:11:18;5.88;;;2.40;;
34359;SDS011;20624;55.870;26.506;2022-08-19T04:14:10;5.78;;;2.65;;
34359;SDS011;20624;55.870;26.506;2022-08-19T04:16:39;5.63;;;2.65;;
34359;SDS011;20624;55.870;26.506;2022-08-19T04:19:07;3.05;;;1.95;;
34359;SDS011;20624;55.870;26.506;2022-08-19T04:21:34;6.93;;;2.60;;
34359;SDS011;20624;55.870;26.506;2022-08-19T04:24:05;8.48;;;2.70;;
34359;SDS011;20624;55.870;26.506;2022-08-19T04:26:34;3.38;;;2.00;;
34359;SDS011;20624;55.870;26.506;2022-08-19T04:31:38;4.55;;;3.15;;
34359;SDS011;20624;55.870;26.506;2022-08-19T04:34:09;6.28;;;2.80;;
34359;SDS011;20624;55.870;26.506;2022-08-19T04:36:39;7.60;;;2.97;;
34359;SDS011;20624;55.870;26.506;2022-08-19T04:39:09;6.82;;;3.03;;
34359;SDS011;20624;55.870;26.506;2022-08-19T04:41:40;4.18;;;2.70;;
34359;SDS011;20624;55.870;26.506;2022-08-19T04:44:26;5.47;;;2.85;;
34359;SDS011;20624;55.870;26.506;2022-08-19T04:46:59;6.18;;;2.47;;
34359;SDS011;20624;55.870;26.506;2022-08-19T04:49:26;4.65;;;3.00;;
34359;SDS011;20624;55.870;26.506;2022-08-19T04:51:54;7.97;;;2.75;;
34359;SDS011;20624;55.870;26.506;2022-08-19T04:54:23;4.13;;;2.67;;
34359;SDS011;20624;55.870;26.506;2022-08-19T04:57:04;6.40;;;3.08;;
34359;SDS011;20624;55.870;26.506;2022-08-19T04:59:37;6.40;;;2.70;;
34359;SDS011;20624;55.870;26.506;2022-08-19T05:02:07;4.63;;;2.92;;
34359;SDS011;20624;55.870;26.506;2022-08-19T05:04:35;7.53;;;3.15;;
34359;SDS011;20624;55.870;26.506;2022-08-19T05:07:08;8.68;;;3.30;;
34359;SDS011;20624;55.870;26.506;2022-08-19T05:09:36;5.45;;;2.97;;
34359;SDS011;20624;55.870;26.506;2022-08-19T05:12:24;4.63;;;2.58;;
34359;SDS011;20624;55.870;26.506;2022-08-19T05:14:54;5.28;;;3.00;;
34359;SDS011;20624;55.870;26.506;2022-08-19T05:17:23;10.35;;;3.15;;
34359;SDS011;20624;55.870;26.506;2022-08-19T05:19:54;7.88;;;2.80;;
34359;SDS011;20624;55.870;26.506;2022-08-19T05:22:41;7.57;;;3.50;;
34359;SDS011;20624;55.870;26.506;2022-08-19T05:25:12;8.82;;;2.85;;
34359;SDS011;20624;55.870;26.506;2022-08-19T05:27:43;4.95;;;2.78;;
34359;SDS011;20624;55.870;26.506;2022-08-19T05:30:11;5.78;;;2.72;;
34359;SDS011;20624;55.870;26.506;2022-08-19T05:32:39;6.93;;;3.65;;
34359;SDS011;20624;55.870;26.506;2022-08-19T05:35:06;5.03;;;3.28;;
34359;SDS011;20624;55.870;26.506;2022-08-19T05:37:34;6.75;;;3.78;;
34359;SDS011;20624;55.870;26.506;2022-08-19T05:40:02;4.05;;;2.63;;
34359;SDS011;20624;55.870;26.506;2022-08-19T05:42:30;7.28;;;3.35;;
34359;SDS011;20624;55.870;26.506;2022-08-19T05:44:58;11.35;;;3.50;;
34359;SDS011;20624;55.870;26.506;2022-08-19T05:47:25;5.88;;;2.67;;
34359;SDS011;20624;55.870;26.506;2022-08-19T05:49:53;6.35;;;2.95;;
34359;SDS011;20624;55.870;26.506;2022-08-19T05:52:21;4.40;;;2.53;;
34359;SDS011;20624;55.870;26.506;2022-08-19T05:54:51;6.15;;;3.30;;
34359;SDS011;20624;55.870;26.506;2022-08-19T05:57:22;3.30;;;1.80;;
34359;SDS011;20624;55.870;26.506;2022-08-19T05:59:50;5.03;;;2.78;;
34359;SDS011;20624;55.870;26.506;2022-08-19T06:02:25;5.10;;;2.22;;
34359;SDS011;20624;55.870;26.506;2022-08-19T06:04:53;5.55;;;3.17;;
34359;SDS011;20624;55.870;26.506;2022-08-19T06:07:21;6.10;;;3.47;;
34359;SDS011;20624;55.870;26.506;2022-08-19T06:09:48;6.53;;;2.55;;
34359;SDS011;20624;55.870;26.506;2022-08-19T06:12:26;5.50;;;3.20;;
34359;SDS011;20624;55.870;26.506;2022-08-19T06:14:58;3.83;;;2.30;;
34359;SDS011;20624;55.870;26.506;2022-08-19T06:17:30;5.30;;;2.67;;
34359;SDS011;20624;55.870;26.506;2022-08-19T06:20:00;6.55;;;3.10;;
34359;SDS011;20624;55.870;26.506;2022-08-19T06:22:31;4.53;;;2.85;;
34359;SDS011;20624;55.870;26.506;2022-08-19T06:25:03;6.55;;;2.70;;
34359;SDS011;20624;55.870;26.506;2022-08-19T06:27:31;6.18;;;3.08;;
34359;SDS011;20624;55.870;26.506;2022-08-19T06:30:04;6.20;;;3.00;;
34359;SDS011;20624;55.870;26.506;2022-08-19T06:32:33;4.13;;;2.50;;
34359;SDS011;20624;55.870;26.506;2022-08-19T06:35:07;4.70;;;2.42;;
34359;SDS011;20624;55.870;26.506;2022-08-19T06:37:35;4.60;;;2.25;;
34359;SDS011;20624;55.870;26.506;2022-08-19T06:40:08;4.18;;;2.08;;
34359;SDS011;20624;55.870;26.506;2022-08-19T06:42:37;4.90;;;2.80;;
34359;SDS011;20624;55.870;26.506;2022-08-19T06:45:14;5.82;;;2.15;;
34359;SDS011;20624;55.870;26.506;2022-08-19T06:47:42;6.75;;;2.25;;
34359;SDS011;20624;55.870;26.506;2022-08-19T06:50:13;4.90;;;2.47;;
34359;SDS011;20624;55.870;26.506;2022-08-19T06:52:40;6.20;;;2.95;;
34359;SDS011;20624;55.870;26.506;2022-08-19T06:55:08;4.68;;;2.53;;
34359;SDS011;20624;55.870;26.506;2022-08-19T06:57:36;4.22;;;2.33;;
34359;SDS011;20624;55.870;26.506;2022-08-19T07:00:04;4.75;;;3.17;;
34359;SDS011;20624;55.870;26.506;2022-08-19T07:02:38;3.33;;;2.00;;
34359;SDS011;20624;55.870;26.506;2022-08-19T07:05:08;3.65;;;1.80;;
34359;SDS011;20624;55.870;26.506;2022-08-19T07:07:36;4.47;;;2.42;;
34359;SDS011;20624;55.870;26.506;2022-08-19T07:10:03;5.88;;;3.03;;
34359;SDS011;20624;55.870;26.506;2022-08-19T07:12:33;5.78;;;2.55;;
34359;SDS011;20624;55.870;26.506;2022-08-19T07:15:07;6.00;;;2.83;;
34359;SDS011;20624;55.870;26.506;2022-08-19T07:17:37;4.85;;;2.83;;
34359;SDS011;20624;55.870;26.506;2022-08-19T07:20:07;6.05;;;3.00;;
34359;SDS011;20624;55.870;26.506;2022-08-19T07:22:37;3.72;;;2.63;;
34359;SDS011;20624;55.870;26.506;2022-08-19T07:25:08;3.63;;;2.15;;
34359;SDS011;20624;55.870;26.506;2022-08-19T07:27:36;2.15;;;1.20;;
34359;SDS011;20624;55.870;26.506;2022-08-19T07:30:05;8.63;;;1.42;;
34359;SDS011;20624;55.870;26.506;2022-08-19T07:32:36;5.40;;;2.75;;
34359;SDS011;20624;55.870;26.506;2022-08-19T07:35:04;2.55;;;0.88;;
34359;SDS011;20624;55.870;26.506;2022-08-19T07:37:35;3.53;;;2.05;;
34359;SDS011;20624;55.870;26.506;2022-08-19T07:40:04;2.28;;;1.45;;
34359;SDS011;20624;55.870;26.506;2022-08-19T07:45:03;0.55;;;0.28;;
34359;SDS011;20624;55.870;26.506;2022-08-19T07:47:32;0.30;;;0.30;;
34359;SDS011;20624;55.870;26.506;2022-08-19T07:50:15;2.42;;;0.85;;
34359;SDS011;20624;55.870;26.506;2022-08-19T07:52:45;7.68;;;1.30;;
34359;SDS011;20624;55.870;26.506;2022-08-19T07:55:15;0.32;;;0.28;;
34359;SDS011;20624;55.870;26.506;2022-08-19T07:58:04;0.82;;;0.80;;
34359;SDS011;20624;55.870;26.506;2022-08-19T08:00:33;1.00;;;0.70;;
34359;SDS011;20624;55.870;26.506;2022-08-19T08:03:02;8.77;;;1.25;;
34359;SDS011;20624;55.870;26.506;2022-08-19T08:05:30;1.92;;;1.38;;
34359;SDS011;20624;55.870;26.506;2022-08-19T08:08:16;5.28;;;1.65;;
34359;SDS011;20624;55.870;26.506;2022-08-19T08:11:02;0.98;;;0.50;;
34359;SDS011;20624;55.870;26.506;2022-08-19T08:13:34;0.60;;;0.60;;
34359;SDS011;20624;55.870;26.506;2022-08-19T08:16:04;2.97;;;1.52;;
34359;SDS011;20624;55.870;26.506;2022-08-19T08:18:39;2.38;;;0.60;;
34359;SDS011;20624;55.870;26.506;2022-08-19T08:21:18;1.38;;;1.00;;
34359;SDS011;20624;55.870;26.506;2022-08-19T08:26:13;1.65;;;0.70;;
34359;SDS011;20624;55.870;26.506;2022-08-19T08:28:44;1.40;;;0.90;;
34359;SDS011;20624;55.870;26.506;2022-08-19T08:31:14;1.95;;;0.70;;
34359;SDS011;20624;55.870;26.506;2022-08-19T08:33:42;5.15;;;2.08;;
34359;SDS011;20624;55.870;26.506;2022-08-19T08:36:10;2.00;;;1.10;;
34359;SDS011;20624;55.870;26.506;2022-08-19T08:38:40;2.13;;;0.82;;
34359;SDS011;20624;55.870;26.506;2022-08-19T08:41:56;1.42;;;0.75;;
34359;SDS011;20624;55.870;26.506;2022-08-19T08:44:11;0.52;;;0.32;;
34359;SDS011;20624;55.870;26.506;2022-08-19T08:46:48;3.58;;;1.70;;
34359;SDS011;20624;55.870;26.506;2022-08-19T08:55:07;2.78;;;1.20;;
34359;SDS011;20624;55.870;26.506;2022-08-19T09:00:13;0.98;;;0.60;;
34359;SDS011;20624;55.870;26.506;2022-08-19T09:02:43;2.33;;;1.42;;
34359;SDS011;20624;55.870;26.506;2022-08-19T09:05:16;3.38;;;1.30;;
34359;SDS011;20624;55.870;26.506;2022-08-19T09:07:51;2.47;;;1.35;;
34359;SDS011;20624;55.870;26.506;2022-08-19T09:10:37;2.15;;;1.65;;
34359;SDS011;20624;55.870;26.506;2022-08-19T09:13:16;1.48;;;1.13;;
34359;SDS011;20624;55.870;26.506;2022-08-19T09:16:23;1.17;;;0.85;;
34359;SDS011;20624;55.870;26.506;2022-08-19T09:18:55;4.13;;;2.13;;
34359;SDS011;20624;55.870;26.506;2022-08-19T09:21:28;4.60;;;1.63;;
34359;SDS011;20624;55.870;26.506;2022-08-19T09:24:00;2.85;;;1.65;;
34359;SDS011;20624;55.870;26.506;2022-08-19T09:26:29;2.67;;;1.60;;
34359;SDS011;20624;55.870;26.506;2022-08-19T09:29:20;2.58;;;1.50;;
34359;SDS011;20624;55.870;26.506;2022-08-19T09:31:48;5.30;;;2.40;;
34359;SDS011;20624;55.870;26.506;2022-08-19T09:34:16;3.42;;;2.05;;
34359;SDS011;20624;55.870;26.506;2022-08-19T09:36:48;4.88;;;1.60;;
34359;SDS011;20624;55.870;26.506;2022-08-19T09:39:20;5.07;;;3.08;;
34359;SDS011;20624;55.870;26.506;2022-08-19T09:42:00;5.03;;;3.95;;
34359;SDS011;20624;55.870;26.506;2022-08-19T09:44:30;3.92;;;2.55;;
34359;SDS011;20624;55.870;26.506;2022-08-19T09:46:59;1.08;;;0.57;;
34359;SDS011;20624;55.870;26.506;2022-08-19T09:49:28;4.88;;;2.40;;
34359;SDS011;20624;55.870;26.506;2022-08-19T09:51:56;4.63;;;1.40;;
34359;SDS011;20624;55.870;26.506;2022-08-19T09:54:25;5.50;;;2.08;;
34359;SDS011;20624;55.870;26.506;2022-08-19T09:56:55;2.17;;;0.95;;
34359;SDS011;20624;55.870;26.506;2022-08-19T09:59:25;3.50;;;2.05;;
34359;SDS011;20624;55.870;26.506;2022-08-19T10:01:53;5.35;;;1.73;;
34359;SDS011;20624;55.870;26.506;2022-08-19T10:04:29;2.88;;;1.40;;
34359;SDS011;20624;55.870;26.506;2022-08-19T10:07:15;4.18;;;1.50;;
34359;SDS011;20624;55.870;26.506;2022-08-19T10:12:13;2.13;;;1.30;;
34359;SDS011;20624;55.870;26.506;2022-08-19T10:14:45;1.45;;;0.98;;
34359;SDS011;20624;55.870;26.506;2022-08-19T10:17:15;2.15;;;0.80;;
34359;SDS011;20624;55.870;26.506;2022-08-19T10:19:47;0.93;;;0.70;;
34359;SDS011;20624;55.870;26.506;2022-08-19T10:22:21;1.25;;;0.75;;
34359;SDS011;20624;55.870;26.506;2022-08-19T10:24:51;1.38;;;0.65;;
34359;SDS011;20624;55.870;26.506;2022-08-19T10:27:19;2.30;;;1.15;;
34359;SDS011;20624;55.870;26.506;2022-08-19T10:29:46;2.17;;;1.17;;
34359;SDS011;20624;55.870;26.506;2022-08-19T10:32:14;1.13;;;0.75;;
34359;SDS011;20624;55.870;26.506;2022-08-19T10:34:59;1.15;;;0.85;;
34359;SDS011;20624;55.870;26.506;2022-08-19T10:37:36;1.55;;;0.85;;
34359;SDS011;20624;55.870;26.506;2022-08-19T10:40:22;1.15;;;0.85;;
34359;SDS011;20624;55.870;26.506;2022-08-19T10:42:50;1.80;;;1.10;;
34359;SDS011;20624;55.870;26.506;2022-08-19T10:45:21;2.88;;;1.20;;
34359;SDS011;20624;55.870;26.506;2022-08-19T10:47:53;3.13;;;1.45;;
34359;SDS011;20624;55.870;26.506;2022-08-19T10:50:22;1.35;;;1.05;;
34359;SDS011;20624;55.870;26.506;2022-08-19T10:53:08;2.35;;;0.80;;
34359;SDS011;20624;55.870;26.506;2022-08-19T10:55:36;1.33;;;0.90;;
34359;SDS011;20624;55.870;26.506;2022-08-19T10:58:25;1.40;;;0.80;;
34359;SDS011;20624;55.870;26.506;2022-08-19T11:00:54;2.08;;;1.17;;
34359;SDS011;20624;55.870;26.506;2022-08-19T11:03:23;3.60;;;1.30;;
34359;SDS011;20624;55.870;26.506;2022-08-19T11:06:00;0.90;;;0.55;;
34359;SDS011;20624;55.870;26.506;2022-08-19T11:08:30;0.50;;;0.40;;
34359;SDS011;20624;55.870;26.506;2022-08-19T11:10:59;1.55;;;0.80;;
34359;SDS011;20624;55.870;26.506;2022-08-19T11:13:27;1.75;;;1.17;;
34359;SDS011;20624;55.870;26.506;2022-08-19T11:16:02;1.40;;;0.88;;
34359;SDS011;20624;55.870;26.506;2022-08-19T11:19:16;1.17;;;0.70;;
34359;SDS011;20624;55.870;26.506;2022-08-19T11:21:29;1.45;;;1.00;;
34359;SDS011;20624;55.870;26.506;2022-08-19T11:23:59;3.42;;;0.80;;
34359;SDS011;20624;55.870;26.506;2022-08-19T11:26:30;0.77;;;0.43;;
34359;SDS011;20624;55.870;26.506;2022-08-19T11:28:58;0.88;;;0.57;;
34359;SDS011;20624;55.870;26.506;2022-08-19T11:31:28;1.02;;;0.60;;
34359;SDS011;20624;55.870;26.506;2022-08-19T11:34:00;2.13;;;0.90;;
34359;SDS011;20624;55.870;26.506;2022-08-19T11:36:30;1.52;;;0.90;;
34359;SDS011;20624;55.870;26.506;2022-08-19T11:38:59;0.50;;;0.50;;
34359;SDS011;20624;55.870;26.506;2022-08-19T11:41:28;2.00;;;1.02;;
34359;SDS011;20624;55.870;26.506;2022-08-19T11:43:58;1.80;;;0.82;;
34359;SDS011;20624;55.870;26.506;2022-08-19T11:46:26;1.48;;;0.75;;
34359;SDS011;20624;55.870;26.506;2022-08-19T11:48:57;1.27;;;0.90;;
34359;SDS011;20624;55.870;26.506;2022-08-19T11:51:26;5.25;;;1.50;;
34359;SDS011;20624;55.870;26.506;2022-08-19T11:53:54;0.95;;;0.68;;
34359;SDS011;20624;55.870;26.506;2022-08-19T11:56:23;2.85;;;1.20;;
34359;SDS011;20624;55.870;26.506;2022-08-19T11:58:52;1.33;;;1.00;;
34359;SDS011;20624;55.870;26.506;2022-08-19T12:01:21;2.47;;;1.10;;
34359;SDS011;20624;55.870;26.506;2022-08-19T12:06:22;1.05;;;0.82;;
34359;SDS011;20624;55.870;26.506;2022-08-19T12:08:55;1.77;;;1.02;;
34359;SDS011;20624;55.870;26.506;2022-08-19T12:11:24;0.73;;;0.73;;
34359;SDS011;20624;55.870;26.506;2022-08-19T12:13:52;1.50;;;1.02;;
34359;SDS011;20624;55.870;26.506;2022-08-19T12:16:21;5.82;;;1.35;;
34359;SDS011;20624;55.870;26.506;2022-08-19T12:18:56;2.88;;;1.23;;
34359;SDS011;20624;55.870;26.506;2022-08-19T12:21:26;0.40;;;0.30;;
34359;SDS011;20624;55.870;26.506;2022-08-19T12:23:59;1.05;;;0.88;;
34359;SDS011;20624;55.870;26.506;2022-08-19T12:26:28;2.22;;;1.50;;
34359;SDS011;20624;55.870;26.506;2022-08-19T12:28:58;1.60;;;0.90;;
34359;SDS011;20624;55.870;26.506;2022-08-19T12:31:29;2.33;;;1.40;;
34359;SDS011;20624;55.870;26.506;2022-08-19T12:33:56;1.40;;;1.10;;
34359;SDS011;20624;55.870;26.506;2022-08-19T12:36:25;4.35;;;1.45;;
34359;SDS011;20624;55.870;26.506;2022-08-19T12:38:52;2.33;;;1.48;;
34359;SDS011;20624;55.870;26.506;2022-08-19T12:43:52;1.80;;;1.02;;
34359;SDS011;20624;55.870;26.506;2022-08-19T12:46:20;2.72;;;1.08;;
34359;SDS011;20624;55.870;26.506;2022-08-19T12:48:51;1.65;;;0.95;;
34359;SDS011;20624;55.870;26.506;2022-08-19T12:51:21;1.50;;;0.85;;
34359;SDS011;20624;55.870;26.506;2022-08-19T12:53:49;1.40;;;0.95;;
34359;SDS011;20624;55.870;26.506;2022-08-19T12:56:16;0.82;;;0.70;;
34359;SDS011;20624;55.870;26.506;2022-08-19T12:58:49;1.15;;;0.88;;
34359;SDS011;20624;55.870;26.506;2022-08-19T13:01:18;2.45;;;1.15;;
34359;SDS011;20624;55.870;26.506;2022-08-19T13:03:48;1.42;;;0.65;;
34359;SDS011;20624;55.870;26.506;2022-08-19T13:06:19;1.08;;;0.73;;
34359;SDS011;20624;55.870;26.506;2022-08-19T13:08:49;1.15;;;0.63;;
34359;SDS011;20624;55.870;26.506;2022-08-19T13:11:17;1.92;;;0.95;;
34359;SDS011;20624;55.870;26.506;2022-08-19T13:18:42;2.78;;;1.25;;
34359;SDS011;20624;55.870;26.506;2022-08-19T13:21:13;0.80;;;0.57;;
34359;SDS011;20624;55.870;26.506;2022-08-19T13:23:41;1.75;;;1.05;;
34359;SDS011;20624;55.870;26.506;2022-08-19T13:26:09;2.67;;;1.02;;
34359;SDS011;20624;55.870;26.506;2022-08-19T13:28:38;1.88;;;0.82;;
34359;SDS011;20624;55.870;26.506;2022-08-19T13:31:26;2.05;;;0.88;;
34359;SDS011;20624;55.870;26.506;2022-08-19T13:34:13;4.38;;;1.08;;
34359;SDS011;20624;55.870;26.506;2022-08-19T13:36:42;4.05;;;1.15;;
34359;SDS011;20624;55.870;26.506;2022-08-19T13:39:12;3.60;;;1.70;;
34359;SDS011;20624;55.870;26.506;2022-08-19T13:41:43;2.28;;;0.98;;
34359;SDS011;20624;55.870;26.506;2022-08-19T13:44:14;2.65;;;1.33;;
34359;SDS011;20624;55.870;26.506;2022-08-19T13:46:45;1.90;;;1.15;;
34359;SDS011;20624;55.870;26.506;2022-08-19T13:49:19;2.33;;;1.13;;
34359;SDS011;20624;55.870;26.506;2022-08-19T13:51:49;2.28;;;1.02;;
34359;SDS011;20624;55.870;26.506;2022-08-19T13:54:20;3.28;;;1.25;;
34359;SDS011;20624;55.870;26.506;2022-08-19T13:56:47;6.07;;;1.45;;
34359;SDS011;20624;55.870;26.506;2022-08-19T13:59:15;1.25;;;0.88;;
34359;SDS011;20624;55.870;26.506;2022-08-19T14:01:45;3.33;;;1.40;;
34359;SDS011;20624;55.870;26.506;2022-08-19T14:04:16;3.05;;;1.33;;
34359;SDS011;20624;55.870;26.506;2022-08-19T14:06:44;4.20;;;1.20;;
34359;SDS011;20624;55.870;26.506;2022-08-19T14:09:11;0.40;;;0.35;;
34359;SDS011;20624;55.870;26.506;2022-08-19T14:11:41;2.83;;;1.38;;
34359;SDS011;20624;55.870;26.506;2022-08-19T14:14:11;3.15;;;0.90;;
34359;SDS011;20624;55.870;26.506;2022-08-19T14:16:41;1.58;;;0.95;;
34359;SDS011;20624;55.870;26.506;2022-08-19T14:19:09;2.38;;;1.70;;
34359;SDS011;20624;55.870;26.506;2022-08-19T14:21:36;6.25;;;2.30;;
34359;SDS011;20624;55.870;26.506;2022-08-19T14:24:07;1.73;;;0.95;;
34359;SDS011;20624;55.870;26.506;2022-08-19T14:26:35;1.90;;;0.95;;
34359;SDS011;20624;55.870;26.506;2022-08-19T14:29:02;0.80;;;0.60;;
34359;SDS011;20624;55.870;26.506;2022-08-19T14:31:30;5.78;;;1.42;;
34359;SDS011;20624;55.870;26.506;2022-08-19T14:33:57;2.80;;;1.45;;
34359;SDS011;20624;55.870;26.506;2022-08-19T14:36:25;2.15;;;1.23;;
34359;SDS011;20624;55.870;26.506;2022-08-19T14:38:53;1.90;;;0.90;;
34359;SDS011;20624;55.870;26.506;2022-08-19T14:41:21;2.63;;;1.67;;
34359;SDS011;20624;55.870;26.506;2022-08-19T14:43:50;2.13;;;0.85;;
34359;SDS011;20624;55.870;26.506;2022-08-19T14:46:25;3.08;;;1.65;;
34359;SDS011;20624;55.870;26.506;2022-08-19T14:48:55;2.55;;;1.33;;
34359;SDS011;20624;55.870;26.506;2022-08-19T14:51:25;0.65;;;0.50;;
34359;SDS011;20624;55.870;26.506;2022-08-19T14:53:53;2.90;;;1.20;;
34359;SDS011;20624;55.870;26.506;2022-08-19T14:56:23;3.72;;;1.40;;
34359;SDS011;20624;55.870;26.506;2022-08-19T14:58:52;4.10;;;1.70;;
34359;SDS011;20624;55.870;26.506;2022-08-19T15:01:26;3.22;;;1.20;;
34359;SDS011;20624;55.870;26.506;2022-08-19T15:03:54;1.83;;;1.17;;
34359;SDS011;20624;55.870;26.506;2022-08-19T15:06:22;3.92;;;1.17;;
34359;SDS011;20624;55.870;26.506;2022-08-19T15:08:50;1.98;;;0.82;;
34359;SDS011;20624;55.870;26.506;2022-08-19T15:11:19;2.30;;;1.13;;
34359;SDS011;20624;55.870;26.506;2022-08-19T15:13:47;2.60;;;1.05;;
34359;SDS011;20624;55.870;26.506;2022-08-19T15:16:15;4.45;;;1.67;;
34359;SDS011;20624;55.870;26.506;2022-08-19T15:18:44;2.10;;;1.27;;
34359;SDS011;20624;55.870;26.506;2022-08-19T15:21:13;2.38;;;1.30;;
34359;SDS011;20624;55.870;26.506;2022-08-19T15:23:52;4.75;;;2.05;;
34359;SDS011;20624;55.870;26.506;2022-08-19T15:26:21;2.45;;;1.30;;
34359;SDS011;20624;55.870;26.506;2022-08-19T15:28:50;2.97;;;1.73;;